sensor_id;sensor_type;location;lat;lon;timestamp;pressure;altitude;pressure_sealevel;temperature;humidity
32131;BME280;18639;50.716;7.086;2022-08-05T00:00:43;100092.31;;;22.53;100.00
32131;BME280;18639;50.716;7.086;2022-08-05T00:03:08;100087.59;;;22.49;100.00
32131;BME280;18639;50.716;7.086;2022-08-05T00:05:33;100081.03;;;22.45;100.00
32131;BME280;18639;50.716;7.086;2022-08-05T00:07:58;100077.69;;;22.36;100.00
32131;BME280;18639;50.716;7.086;2022-08-05T00:10:24;100066.06;;;22.31;100.00
32131;BME280;18639;50.716;7.086;2022-08-05T00:12:49;100075.13;;;22.28;100.00
32131;BME280;18639;50.716;7.086;2022-08-05T00:15:14;100085.31;;;22.31;100.00
32131;BME280;18639;50.716;7.086;2022-08-05T00:17:39;100043.16;;;22.02;100.00
32131;BME280;18639;50.716;7.086;2022-08-05T00:20:05;100083.41;;;22.25;100.00
32131;BME280;18639;50.716;7.086;2022-08-05T00:22:30;100065.59;;;22.12;100.00
32131;BME280;18639;50.716;7.086;2022-08-05T00:24:56;100048.44;;;22.02;100.00
32131;BME280;18639;50.716;7.086;2022-08-05T00:27:21;100060.59;;;22.03;100.00
32131;BME280;18639;50.716;7.086;2022-08-05T00:29:46;100064.50;;;22.07;100.00
32131;BME280;18639;50.716;7.086;2022-08-05T00:32:12;100047.31;;;21.96;100.00
32131;BME280;18639;50.716;7.086;2022-08-05T00:34:42;100058.94;;;22.02;100.00
32131;BME280;18639;50.716;7.086;2022-08-05T00:37:08;100039.31;;;21.90;100.00
32131;BME280;18639;50.716;7.086;2022-08-05T00:39:33;100052.59;;;21.96;100.00
32131;BME280;18639;50.716;7.086;2022-08-05T00:41:58;99964.31;;;21.41;100.00
32131;BME280;18639;50.716;7.086;2022-08-05T00:44:24;100028.75;;;21.75;100.00
32131;BME280;18639;50.716;7.086;2022-08-05T00:46:49;100022.22;;;21.71;100.00
32131;BME280;18639;50.716;7.086;2022-08-05T00:49:14;100042.84;;;21.82;100.00
32131;BME280;18639;50.716;7.086;2022-08-05T00:51:43;100031.59;;;21.73;100.00
32131;BME280;18639;50.716;7.086;2022-08-05T00:54:10;100040.91;;;21.76;100.00
32131;BME280;18639;50.716;7.086;2022-08-05T00:56:36;100020.66;;;21.62;100.00
32131;BME280;18639;50.716;7.086;2022-08-05T00:59:01;100022.81;;;21.58;100.00
32131;BME280;18639;50.716;7.086;2022-08-05T01:01:26;100042.66;;;21.69;100.00
32131;BME280;18639;50.716;7.086;2022-08-05T01:03:51;99971.41;;;21.18;100.00
32131;BME280;18639;50.716;7.086;2022-08-05T01:06:17;100050.97;;;21.58;100.00
32131;BME280;18639;50.716;7.086;2022-08-05T01:08:42;100036.22;;;21.49;100.00
32131;BME280;18639;50.716;7.086;2022-08-05T01:13:55;100066.50;;;21.67;100.00
32131;BME280;18639;50.716;7.086;2022-08-05T01:16:42;100058.47;;;21.61;100.00
32131;BME280;18639;50.716;7.086;2022-08-05T01:19:31;100065.84;;;21.65;100.00
32131;BME280;18639;50.716;7.086;2022-08-05T01:22:18;100072.91;;;21.65;100.00
32131;BME280;18639;50.716;7.086;2022-08-05T01:30:35;100078.78;;;21.52;100.00
32131;BME280;18639;50.716;7.086;2022-08-05T01:33:05;100074.69;;;21.50;100.00
32131;BME280;18639;50.716;7.086;2022-08-05T01:35:32;100054.34;;;21.43;100.00
32131;BME280;18639;50.716;7.086;2022-08-05T01:38:00;100051.25;;;21.40;100.00
32131;BME280;18639;50.716;7.086;2022-08-05T01:40:28;100043.69;;;21.37;100.00
32131;BME280;18639;50.716;7.086;2022-08-05T01:42:56;100040.91;;;21.38;100.00
32131;BME280;18639;50.716;7.086;2022-08-05T01:45:24;100052.00;;;21.49;100.00
32131;BME280;18639;50.716;7.086;2022-08-05T01:47:52;100026.78;;;21.39;100.00
32131;BME280;18639;50.716;7.086;2022-08-05T01:50:27;100027.72;;;21.47;100.00
32131;BME280;18639;50.716;7.086;2022-08-05T01:52:54;100022.16;;;21.41;100.00
32131;BME280;18639;50.716;7.086;2022-08-05T01:55:22;99993.00;;;21.28;100.00
32131;BME280;18639;50.716;7.086;2022-08-05T01:57:50;100026.59;;;21.41;100.00
32131;BME280;18639;50.716;7.086;2022-08-05T02:00:17;100054.06;;;21.38;100.00
32131;BME280;18639;50.716;7.086;2022-08-05T02:02:47;100051.78;;;21.35;100.00
32131;BME280;18639;50.716;7.086;2022-08-05T02:05:17;100032.50;;;21.20;100.00
32131;BME280;18639;50.716;7.086;2022-08-05T02:07:44;100059.19;;;21.32;100.00
32131;BME280;18639;50.716;7.086;2022-08-05T02:10:10;100064.28;;;21.33;100.00
32131;BME280;18639;50.716;7.086;2022-08-05T02:12:52;100070.88;;;21.29;100.00
32131;BME280;18639;50.716;7.086;2022-08-05T02:15:25;100097.09;;;21.37;100.00
32131;BME280;18639;50.716;7.086;2022-08-05T02:18:01;100116.22;;;21.31;100.00
32131;BME280;18639;50.716;7.086;2022-08-05T02:20:32;100150.91;;;21.27;100.00
32131;BME280;18639;50.716;7.086;2022-08-05T02:23:02;100192.47;;;21.31;100.00
32131;BME280;18639;50.716;7.086;2022-08-05T02:25:40;100208.44;;;21.22;100.00
32131;BME280;18639;50.716;7.086;2022-08-05T02:28:09;100220.13;;;21.19;100.00
32131;BME280;18639;50.716;7.086;2022-08-05T02:30:44;100235.25;;;21.09;100.00
32131;BME280;18639;50.716;7.086;2022-08-05T02:33:14;100225.72;;;21.00;99.92
32131;BME280;18639;50.716;7.086;2022-08-05T02:35:41;100217.56;;;20.87;99.32
32131;BME280;18639;50.716;7.086;2022-08-05T02:38:09;100218.03;;;20.98;99.22
32131;BME280;18639;50.716;7.086;2022-08-05T02:40:35;100218.03;;;20.98;98.80
32131;BME280;18639;50.716;7.086;2022-08-05T02:43:01;100241.84;;;20.97;98.80
32131;BME280;18639;50.716;7.086;2022-08-05T02:45:28;100246.78;;;20.92;99.32
32131;BME280;18639;50.716;7.086;2022-08-05T02:47:55;100236.44;;;20.90;99.10
32131;BME280;18639;50.716;7.086;2022-08-05T02:50:22;100214.81;;;20.72;99.12
32131;BME280;18639;50.716;7.086;2022-08-05T02:52:48;100233.31;;;20.87;99.25
32131;BME280;18639;50.716;7.086;2022-08-05T02:55:15;100243.69;;;20.88;99.37
32131;BME280;18639;50.716;7.086;2022-08-05T02:57:41;100261.88;;;20.90;99.96
32131;BME280;18639;50.716;7.086;2022-08-05T03:00:07;100245.78;;;20.85;99.50
32131;BME280;18639;50.716;7.086;2022-08-05T03:02:40;100240.88;;;20.82;100.00
32131;BME280;18639;50.716;7.086;2022-08-05T03:05:09;100264.84;;;20.87;100.00
32131;BME280;18639;50.716;7.086;2022-08-05T03:07:35;100273.41;;;20.81;100.00
32131;BME280;18639;50.716;7.086;2022-08-05T03:10:01;100245.66;;;20.70;100.00
32131;BME280;18639;50.716;7.086;2022-08-05T03:12:35;100231.03;;;20.68;100.00
32131;BME280;18639;50.716;7.086;2022-08-05T03:15:02;100242.88;;;20.64;100.00
32131;BME280;18639;50.716;7.086;2022-08-05T03:17:28;100254.69;;;20.68;100.00
32131;BME280;18639;50.716;7.086;2022-08-05T03:19:53;100261.25;;;20.64;100.00
32131;BME280;18639;50.716;7.086;2022-08-05T03:22:19;100254.22;;;20.56;100.00
32131;BME280;18639;50.716;7.086;2022-08-05T03:24:46;100260.31;;;20.56;100.00
32131;BME280;18639;50.716;7.086;2022-08-05T03:27:12;100265.38;;;20.50;100.00
32131;BME280;18639;50.716;7.086;2022-08-05T03:29:37;100264.88;;;20.46;100.00
32131;BME280;18639;50.716;7.086;2022-08-05T03:32:05;100276.53;;;20.44;100.00
32131;BME280;18639;50.716;7.086;2022-08-05T03:34:32;100277.53;;;20.35;100.00
32131;BME280;18639;50.716;7.086;2022-08-05T03:36:58;100275.72;;;20.43;100.00
32131;BME280;18639;50.716;7.086;2022-08-05T03:39:23;100268.81;;;20.42;100.00
32131;BME280;18639;50.716;7.086;2022-08-05T03:41:48;100255.88;;;20.33;100.00
32131;BME280;18639;50.716;7.086;2022-08-05T03:44:14;100259.78;;;20.29;100.00
32131;BME280;18639;50.716;7.086;2022-08-05T03:46:39;100240.56;;;20.20;100.00
32131;BME280;18639;50.716;7.086;2022-08-05T03:49:04;100250.75;;;20.23;100.00
32131;BME280;18639;50.716;7.086;2022-08-05T03:51:34;100239.75;;;20.28;100.00
32131;BME280;18639;50.716;7.086;2022-08-05T03:54:26;100244.19;;;20.27;100.00
32131;BME280;18639;50.716;7.086;2022-08-05T03:56:55;100235.31;;;20.20;100.00
32131;BME280;18639;50.716;7.086;2022-08-05T03:59:27;100230.72;;;20.22;100.00
32131;BME280;18639;50.716;7.086;2022-08-05T04:01:55;100211.69;;;20.20;100.00
32131;BME280;18639;50.716;7.086;2022-08-05T04:04:22;100201.38;;;20.10;100.00
32131;BME280;18639;50.716;7.086;2022-08-05T04:06:48;100202.53;;;20.08;100.00
32131;BME280;18639;50.716;7.086;2022-08-05T04:09:14;100217.44;;;20.15;100.00
32131;BME280;18639;50.716;7.086;2022-08-05T04:11:40;100204.16;;;20.01;100.00
32131;BME280;18639;50.716;7.086;2022-08-05T04:14:06;100204.81;;;20.03;100.00
32131;BME280;18639;50.716;7.086;2022-08-05T04:16:33;100190.22;;;20.00;100.00
32131;BME280;18639;50.716;7.086;2022-08-05T04:19:02;100169.88;;;19.94;100.00
32131;BME280;18639;50.716;7.086;2022-08-05T04:21:28;100148.06;;;19.94;100.00
32131;BME280;18639;50.716;7.086;2022-08-05T04:23:53;100136.91;;;20.00;100.00
32131;BME280;18639;50.716;7.086;2022-08-05T04:26:18;100092.81;;;19.95;100.00
32131;BME280;18639;50.716;7.086;2022-08-05T04:28:44;100038.09;;;19.84;100.00
32131;BME280;18639;50.716;7.086;2022-08-05T04:31:09;100033.66;;;19.76;100.00
32131;BME280;18639;50.716;7.086;2022-08-05T04:33:35;100058.91;;;19.77;100.00
32131;BME280;18639;50.716;7.086;2022-08-05T04:36:00;100056.47;;;19.76;100.00
32131;BME280;18639;50.716;7.086;2022-08-05T04:38:25;100050.88;;;19.79;100.00
32131;BME280;18639;50.716;7.086;2022-08-05T04:40:51;100052.53;;;19.80;100.00
32131;BME280;18639;50.716;7.086;2022-08-05T04:43:16;100052.00;;;19.76;100.00
32131;BME280;18639;50.716;7.086;2022-08-05T04:45:41;100063.66;;;19.74;100.00
32131;BME280;18639;50.716;7.086;2022-08-05T04:48:09;100080.69;;;19.78;100.00
32131;BME280;18639;50.716;7.086;2022-08-05T04:50:40;100075.97;;;19.82;100.00
32131;BME280;18639;50.716;7.086;2022-08-05T04:53:07;100063.97;;;19.79;100.00
32131;BME280;18639;50.716;7.086;2022-08-05T04:55:32;100061.50;;;19.77;100.00
32131;BME280;18639;50.716;7.086;2022-08-05T04:57:57;100042.22;;;19.70;100.00
32131;BME280;18639;50.716;7.086;2022-08-05T05:00:23;100074.31;;;19.81;100.00
32131;BME280;18639;50.716;7.086;2022-08-05T05:02:48;100122.81;;;19.85;100.00
32131;BME280;18639;50.716;7.086;2022-08-05T05:05:13;100154.28;;;19.93;100.00
32131;BME280;18639;50.716;7.086;2022-08-05T05:07:38;100119.56;;;19.74;100.00
32131;BME280;18639;50.716;7.086;2022-08-05T05:10:04;100153.66;;;19.91;100.00
32131;BME280;18639;50.716;7.086;2022-08-05T05:12:30;100125.28;;;19.78;100.00
32131;BME280;18639;50.716;7.086;2022-08-05T05:14:56;100155.13;;;19.85;100.00
32131;BME280;18639;50.716;7.086;2022-08-05T05:17:21;100163.00;;;19.85;100.00
32131;BME280;18639;50.716;7.086;2022-08-05T05:19:46;100177.59;;;19.96;100.00
32131;BME280;18639;50.716;7.086;2022-08-05T05:22:12;100148.56;;;19.73;100.00
32131;BME280;18639;50.716;7.086;2022-08-05T05:24:37;100181.38;;;20.01;100.00
32131;BME280;18639;50.716;7.086;2022-08-05T05:27:02;100187.09;;;20.05;100.00
32131;BME280;18639;50.716;7.086;2022-08-05T05:29:28;100182.50;;;20.07;100.00
32131;BME280;18639;50.716;7.086;2022-08-05T05:31:53;100194.66;;;20.08;100.00
32131;BME280;18639;50.716;7.086;2022-08-05T05:34:19;100188.59;;;20.07;100.00
32131;BME280;18639;50.716;7.086;2022-08-05T05:36:44;100191.38;;;20.06;100.00
32131;BME280;18639;50.716;7.086;2022-08-05T05:39:10;100198.59;;;20.12;100.00
32131;BME280;18639;50.716;7.086;2022-08-05T05:41:35;100208.75;;;20.15;100.00
32131;BME280;18639;50.716;7.086;2022-08-05T05:44:00;100201.38;;;20.10;100.00
32131;BME280;18639;50.716;7.086;2022-08-05T05:46:25;100217.59;;;20.14;100.00
32131;BME280;18639;50.716;7.086;2022-08-05T05:48:51;100215.97;;;20.13;100.00
32131;BME280;18639;50.716;7.086;2022-08-05T05:51:21;100198.25;;;20.15;100.00
32131;BME280;18639;50.716;7.086;2022-08-05T05:53:46;100209.25;;;20.18;100.00
32131;BME280;18639;50.716;7.086;2022-08-05T05:56:12;100222.84;;;20.22;100.00
32131;BME280;18639;50.716;7.086;2022-08-05T05:58:37;100221.53;;;20.26;100.00
32131;BME280;18639;50.716;7.086;2022-08-05T06:01:02;100217.13;;;20.27;100.00
32131;BME280;18639;50.716;7.086;2022-08-05T06:03:27;100211.38;;;20.23;100.00
32131;BME280;18639;50.716;7.086;2022-08-05T06:05:53;100207.91;;;20.31;100.00
32131;BME280;18639;50.716;7.086;2022-08-05T06:08:18;100212.53;;;20.37;100.00
32131;BME280;18639;50.716;7.086;2022-08-05T06:10:43;100197.31;;;20.40;100.00
32131;BME280;18639;50.716;7.086;2022-08-05T06:13:09;100175.13;;;20.43;100.00
32131;BME280;18639;50.716;7.086;2022-08-05T06:15:34;100174.13;;;20.52;100.00
32131;BME280;18639;50.716;7.086;2022-08-05T06:17:59;100187.72;;;20.64;100.00
32131;BME280;18639;50.716;7.086;2022-08-05T06:20:24;100180.00;;;20.62;100.00
32131;BME280;18639;50.716;7.086;2022-08-05T06:22:50;100186.75;;;20.73;100.00
32131;BME280;18639;50.716;7.086;2022-08-05T06:25:15;100194.59;;;20.81;100.00
32131;BME280;18639;50.716;7.086;2022-08-05T06:27:40;100194.75;;;20.87;100.00
32131;BME280;18639;50.716;7.086;2022-08-05T06:30:06;100220.97;;;21.04;100.00
32131;BME280;18639;50.716;7.086;2022-08-05T06:32:32;100218.50;;;21.02;100.00
32131;BME280;18639;50.716;7.086;2022-08-05T06:34:57;100219.81;;;21.14;100.00
32131;BME280;18639;50.716;7.086;2022-08-05T06:37:26;100223.06;;;21.16;100.00
32131;BME280;18639;50.716;7.086;2022-08-05T06:39:52;100213.56;;;21.15;100.00
32131;BME280;18639;50.716;7.086;2022-08-05T06:42:17;100218.31;;;21.20;100.00
32131;BME280;18639;50.716;7.086;2022-08-05T06:44:43;100226.53;;;21.17;100.00
32131;BME280;18639;50.716;7.086;2022-08-05T06:47:08;100219.13;;;21.12;100.00
32131;BME280;18639;50.716;7.086;2022-08-05T06:49:34;100227.50;;;21.08;100.00
32131;BME280;18639;50.716;7.086;2022-08-05T06:51:59;100240.81;;;21.06;100.00
32131;BME280;18639;50.716;7.086;2022-08-05T06:54:25;100228.69;;;20.97;100.00
32131;BME280;18639;50.716;7.086;2022-08-05T06:56:50;100239.56;;;20.94;100.00
32131;BME280;18639;50.716;7.086;2022-08-05T06:59:15;100236.28;;;20.92;100.00
32131;BME280;18639;50.716;7.086;2022-08-05T07:01:40;100246.44;;;20.95;100.00
32131;BME280;18639;50.716;7.086;2022-08-05T07:04:06;100243.31;;;20.91;100.00
32131;BME280;18639;50.716;7.086;2022-08-05T07:06:31;100250.53;;;20.89;100.00
32131;BME280;18639;50.716;7.086;2022-08-05T07:08:56;100237.94;;;20.77;100.00
32131;BME280;18639;50.716;7.086;2022-08-05T07:11:22;100262.84;;;20.89;100.00
32131;BME280;18639;50.716;7.086;2022-08-05T07:13:48;100260.09;;;20.82;100.00
32131;BME280;18639;50.716;7.086;2022-08-05T07:16:32;100267.63;;;20.93;100.00
32131;BME280;18639;50.716;7.086;2022-08-05T07:19:17;100263.84;;;20.96;100.00
32131;BME280;18639;50.716;7.086;2022-08-05T07:21:47;100272.69;;;21.03;100.00
32131;BME280;18639;50.716;7.086;2022-08-05T07:24:13;100272.19;;;20.99;100.00
32131;BME280;18639;50.716;7.086;2022-08-05T07:26:39;100271.53;;;21.06;100.00
32131;BME280;18639;50.716;7.086;2022-08-05T07:29:05;100279.59;;;21.04;100.00
32131;BME280;18639;50.716;7.086;2022-08-05T07:31:30;100275.00;;;20.98;100.00
32131;BME280;18639;50.716;7.086;2022-08-05T07:33:55;100277.94;;;21.03;100.00
32131;BME280;18639;50.716;7.086;2022-08-05T07:36:21;100294.88;;;21.00;100.00
32131;BME280;18639;50.716;7.086;2022-08-05T07:38:46;100276.50;;;20.92;100.00
32131;BME280;18639;50.716;7.086;2022-08-05T07:41:19;100274.69;;;20.93;100.00
32131;BME280;18639;50.716;7.086;2022-08-05T07:43:45;100293.88;;;21.01;100.00
32131;BME280;18639;50.716;7.086;2022-08-05T07:46:10;100290.78;;;20.90;100.00
32131;BME280;18639;50.716;7.086;2022-08-05T07:48:36;100267.13;;;20.90;100.00
32131;BME280;18639;50.716;7.086;2022-08-05T07:51:01;100294.19;;;21.07;100.00
32131;BME280;18639;50.716;7.086;2022-08-05T07:53:27;100286.16;;;21.08;100.00
32131;BME280;18639;50.716;7.086;2022-08-05T07:55:52;100291.72;;;21.29;100.00
32131;BME280;18639;50.716;7.086;2022-08-05T07:58:17;100285.47;;;21.22;100.00
32131;BME280;18639;50.716;7.086;2022-08-05T08:00:43;100316.66;;;21.41;100.00
32131;BME280;18639;50.716;7.086;2022-08-05T08:03:12;100313.72;;;21.28;100.00
32131;BME280;18639;50.716;7.086;2022-08-05T08:05:41;100329.31;;;21.38;100.00
32131;BME280;18639;50.716;7.086;2022-08-05T08:08:08;100321.44;;;21.30;100.00
32131;BME280;18639;50.716;7.086;2022-08-05T08:10:34;100321.66;;;21.20;100.00
32131;BME280;18639;50.716;7.086;2022-08-05T08:12:59;100316.19;;;21.22;100.00
32131;BME280;18639;50.716;7.086;2022-08-05T08:15:24;100333.47;;;21.24;100.00
32131;BME280;18639;50.716;7.086;2022-08-05T08:17:50;100343.13;;;21.32;100.00
32131;BME280;18639;50.716;7.086;2022-08-05T08:20:15;100336.72;;;21.26;100.00
32131;BME280;18639;50.716;7.086;2022-08-05T08:22:40;100358.09;;;21.23;100.00
32131;BME280;18639;50.716;7.086;2022-08-05T08:25:06;100358.75;;;21.17;100.00
32131;BME280;18639;50.716;7.086;2022-08-05T08:27:32;100359.44;;;21.19;100.00
32131;BME280;18639;50.716;7.086;2022-08-05T08:29:57;100371.41;;;21.22;100.00
32131;BME280;18639;50.716;7.086;2022-08-05T08:32:23;100354.50;;;21.16;100.00
32131;BME280;18639;50.716;7.086;2022-08-05T08:34:48;100361.06;;;21.20;100.00
32131;BME280;18639;50.716;7.086;2022-08-05T08:37:15;100342.66;;;21.04;100.00
32131;BME280;18639;50.716;7.086;2022-08-05T08:39:40;100369.28;;;21.17;100.00
32131;BME280;18639;50.716;7.086;2022-08-05T08:42:08;100359.13;;;21.14;100.00
32131;BME280;18639;50.716;7.086;2022-08-05T08:44:35;100358.75;;;21.09;100.00
32131;BME280;18639;50.716;7.086;2022-08-05T08:47:02;100368.44;;;21.17;100.00
32131;BME280;18639;50.716;7.086;2022-08-05T08:49:29;100355.78;;;21.12;100.00
32131;BME280;18639;50.716;7.086;2022-08-05T08:52:00;100361.75;;;21.14;100.00
32131;BME280;18639;50.716;7.086;2022-08-05T08:54:29;100374.53;;;21.17;100.00
32131;BME280;18639;50.716;7.086;2022-08-05T08:56:55;100376.81;;;21.12;100.00
32131;BME280;18639;50.716;7.086;2022-08-05T08:59:21;100372.22;;;21.06;100.00
32131;BME280;18639;50.716;7.086;2022-08-05T09:01:47;100368.94;;;21.04;100.00
32131;BME280;18639;50.716;7.086;2022-08-05T09:04:12;100353.84;;;20.98;100.00
32131;BME280;18639;50.716;7.086;2022-08-05T09:06:38;100356.13;;;21.09;100.00
32131;BME280;18639;50.716;7.086;2022-08-05T09:09:04;100338.56;;;21.01;100.00
32131;BME280;18639;50.716;7.086;2022-08-05T09:11:32;100336.41;;;21.13;100.00
32131;BME280;18639;50.716;7.086;2022-08-05T09:13:58;100335.44;;;21.22;100.00
32131;BME280;18639;50.716;7.086;2022-08-05T09:16:24;100330.78;;;21.32;100.00
32131;BME280;18639;50.716;7.086;2022-08-05T09:18:50;100324.34;;;21.51;100.00
32131;BME280;18639;50.716;7.086;2022-08-05T09:21:15;100342.53;;;21.69;100.00
32131;BME280;18639;50.716;7.086;2022-08-05T09:23:43;100348.13;;;21.66;100.00
32131;BME280;18639;50.716;7.086;2022-08-05T09:26:13;100347.78;;;21.69;100.00
32131;BME280;18639;50.716;7.086;2022-08-05T09:28:46;100358.63;;;21.66;100.00
32131;BME280;18639;50.716;7.086;2022-08-05T09:31:13;100355.03;;;21.59;100.00
32131;BME280;18639;50.716;7.086;2022-08-05T09:33:48;100367.50;;;21.65;99.46
32131;BME280;18639;50.716;7.086;2022-08-05T09:36:14;100355.44;;;21.39;100.00
32131;BME280;18639;50.716;7.086;2022-08-05T09:38:57;100368.22;;;21.51;99.29
32131;BME280;18639;50.716;7.086;2022-08-05T09:41:23;100377.47;;;21.38;98.29
32131;BME280;18639;50.716;7.086;2022-08-05T09:43:49;100384.88;;;21.35;98.88
32131;BME280;18639;50.716;7.086;2022-08-05T09:46:27;100383.72;;;21.29;98.61
32131;BME280;18639;50.716;7.086;2022-08-05T09:48:54;100389.31;;;21.26;100.00
32131;BME280;18639;50.716;7.086;2022-08-05T09:51:34;100389.28;;;21.10;99.20
32131;BME280;18639;50.716;7.086;2022-08-05T09:54:02;100402.63;;;21.17;98.57
32131;BME280;18639;50.716;7.086;2022-08-05T09:56:31;100401.81;;;21.16;99.73
32131;BME280;18639;50.716;7.086;2022-08-05T09:59:04;100398.84;;;21.19;99.74
32131;BME280;18639;50.716;7.086;2022-08-05T10:01:31;100408.72;;;21.25;100.00
32131;BME280;18639;50.716;7.086;2022-08-05T10:04:07;100411.00;;;21.28;99.86
32131;BME280;18639;50.716;7.086;2022-08-05T10:06:35;100406.09;;;21.25;98.97
32131;BME280;18639;50.716;7.086;2022-08-05T10:09:10;100419.53;;;21.38;98.93
32131;BME280;18639;50.716;7.086;2022-08-05T10:11:35;100417.91;;;21.21;98.57
32131;BME280;18639;50.716;7.086;2022-08-05T10:14:26;100431.72;;;21.23;98.22
32131;BME280;18639;50.716;7.086;2022-08-05T10:16:53;100434.47;;;21.06;97.14
32131;BME280;18639;50.716;7.086;2022-08-05T10:19:23;100453.03;;;20.96;98.64
32131;BME280;18639;50.716;7.086;2022-08-05T10:21:49;100462.38;;;20.90;97.07
32131;BME280;18639;50.716;7.086;2022-08-05T10:24:19;100435.13;;;20.67;99.08
32131;BME280;18639;50.716;7.086;2022-08-05T10:26:48;100467.44;;;20.84;98.61
32131;BME280;18639;50.716;7.086;2022-08-05T10:29:14;100462.53;;;20.73;98.10
32131;BME280;18639;50.716;7.086;2022-08-05T10:31:39;100458.72;;;20.59;99.21
32131;BME280;18639;50.716;7.086;2022-08-05T10:34:07;100481.19;;;20.53;99.26
32131;BME280;18639;50.716;7.086;2022-08-05T10:36:35;100487.91;;;20.48;99.31
32131;BME280;18639;50.716;7.086;2022-08-05T10:39:18;100498.25;;;20.49;99.57
32131;BME280;18639;50.716;7.086;2022-08-05T10:41:53;100491.63;;;20.37;99.55
32131;BME280;18639;50.716;7.086;2022-08-05T10:44:21;100498.09;;;20.25;100.00
32131;BME280;18639;50.716;7.086;2022-08-05T10:46:53;100502.97;;;20.12;100.00
32131;BME280;18639;50.716;7.086;2022-08-05T10:49:19;100506.53;;;20.03;100.00
32131;BME280;18639;50.716;7.086;2022-08-05T10:51:55;100503.91;;;20.03;100.00
32131;BME280;18639;50.716;7.086;2022-08-05T10:54:45;100521.09;;;19.97;100.00
32131;BME280;18639;50.716;7.086;2022-08-05T10:57:11;100484.66;;;19.60;100.00
32131;BME280;18639;50.716;7.086;2022-08-05T11:00:05;100526.25;;;19.81;100.00
32131;BME280;18639;50.716;7.086;2022-08-05T11:02:31;100524.06;;;19.76;100.00
32131;BME280;18639;50.716;7.086;2022-08-05T11:04:56;100523.88;;;19.70;100.00
32131;BME280;18639;50.716;7.086;2022-08-05T11:07:22;100525.81;;;19.68;100.00
32131;BME280;18639;50.716;7.086;2022-08-05T11:09:50;100543.47;;;19.84;100.00
32131;BME280;18639;50.716;7.086;2022-08-05T11:17:30;100546.09;;;19.84;100.00
32131;BME280;18639;50.716;7.086;2022-08-05T11:20:02;100553.84;;;19.93;98.53
32131;BME280;18639;50.716;7.086;2022-08-05T11:22:47;100570.78;;;19.99;97.56
32131;BME280;18639;50.716;7.086;2022-08-05T11:25:48;100568.16;;;19.99;95.38
32131;BME280;18639;50.716;7.086;2022-08-05T11:33:27;100596.00;;;19.92;95.61
32131;BME280;18639;50.716;7.086;2022-08-05T11:35:54;100588.28;;;19.90;95.84
32131;BME280;18639;50.716;7.086;2022-08-05T11:41:26;100604.03;;;20.16;95.73
32131;BME280;18639;50.716;7.086;2022-08-05T11:46:53;100587.06;;;20.28;93.16
32131;BME280;18639;50.716;7.086;2022-08-05T11:49:21;100606.72;;;20.50;91.22
32131;BME280;18639;50.716;7.086;2022-08-05T11:51:49;100606.59;;;20.59;89.23
32131;BME280;18639;50.716;7.086;2022-08-05T11:54:23;100603.34;;;20.66;90.50
32131;BME280;18639;50.716;7.086;2022-08-05T11:56:52;100604.38;;;20.73;89.81
32131;BME280;18639;50.716;7.086;2022-08-05T11:59:24;100615.31;;;20.94;90.12
32131;BME280;18639;50.716;7.086;2022-08-05T12:02:00;100608.44;;;21.09;87.15
32131;BME280;18639;50.716;7.086;2022-08-05T12:04:28;100608.50;;;21.25;87.15
32131;BME280;18639;50.716;7.086;2022-08-05T12:07:01;100606.56;;;21.43;84.16
32131;BME280;18639;50.716;7.086;2022-08-05T12:09:28;100582.91;;;21.35;79.57
32131;BME280;18639;50.716;7.086;2022-08-05T12:11:53;100602.63;;;21.64;77.93
32131;BME280;18639;50.716;7.086;2022-08-05T12:14:18;100602.63;;;21.72;78.37
32131;BME280;18639;50.716;7.086;2022-08-05T12:16:44;100606.25;;;21.63;79.07
32131;BME280;18639;50.716;7.086;2022-08-05T12:19:14;100593.75;;;21.49;79.06
32131;BME280;18639;50.716;7.086;2022-08-05T12:21:48;100612.47;;;21.54;80.55
32131;BME280;18639;50.716;7.086;2022-08-05T12:24:19;100609.19;;;21.60;78.78
32131;BME280;18639;50.716;7.086;2022-08-05T12:26:47;100613.16;;;21.64;79.49
32131;BME280;18639;50.716;7.086;2022-08-05T12:31:48;100601.81;;;21.47;79.04
32131;BME280;18639;50.716;7.086;2022-08-05T12:34:15;100616.78;;;21.47;79.62
32131;BME280;18639;50.716;7.086;2022-08-05T12:36:42;100630.59;;;21.57;79.83
32131;BME280;18639;50.716;7.086;2022-08-05T12:39:09;100625.84;;;21.68;79.47
32131;BME280;18639;50.716;7.086;2022-08-05T12:41:36;100623.03;;;21.78;79.91
32131;BME280;18639;50.716;7.086;2022-08-05T12:44:09;100621.22;;;21.78;79.59
32131;BME280;18639;50.716;7.086;2022-08-05T12:46:36;100637.50;;;21.82;79.09
32131;BME280;18639;50.716;7.086;2022-08-05T12:49:08;100633.22;;;21.89;78.59
32131;BME280;18639;50.716;7.086;2022-08-05T12:54:23;100642.97;;;22.05;76.25
32131;BME280;18639;50.716;7.086;2022-08-05T12:56:52;100648.84;;;22.23;74.12
32131;BME280;18639;50.716;7.086;2022-08-05T12:59:18;100645.38;;;22.39;74.66
32131;BME280;18639;50.716;7.086;2022-08-05T13:01:56;100649.75;;;22.62;73.66
32131;BME280;18639;50.716;7.086;2022-08-05T13:04:26;100649.25;;;22.67;71.85
32131;BME280;18639;50.716;7.086;2022-08-05T13:06:52;100637.78;;;22.44;71.10
32131;BME280;18639;50.716;7.086;2022-08-05T13:09:21;100649.09;;;22.77;72.66
32131;BME280;18639;50.716;7.086;2022-08-05T13:11:47;100661.22;;;22.94;71.16
32131;BME280;18639;50.716;7.086;2022-08-05T13:14:18;100643.44;;;22.33;70.10
32131;BME280;18639;50.716;7.086;2022-08-05T13:16:49;100653.25;;;22.39;72.18